createdAt,value
2019-04-23T00:00:26.452Z,10.20
2019-04-23T00:01:52.540Z,10.20
2019-04-23T00:02:58.539Z,10.20
2019-04-23T00:04:08.531Z,10.20
2019-04-23T00:05:17.253Z,10.10
2019-04-23T00:06:30.222Z,10.10
2019-04-23T00:07:37.179Z,10.00
2019-04-23T00:08:42.097Z,10.00
2019-04-23T00:09:42.334Z,9.90
2019-04-23T00:10:45.377Z,9.90
2019-04-23T00:11:51.392Z,9.90
2019-04-23T00:12:59.289Z,10.00
2019-04-23T00:14:12.436Z,9.90
2019-04-23T00:15:15.013Z,9.90
2019-04-23T00:16:25.659Z,9.90
2019-04-23T00:17:35.853Z,9.80
2019-04-23T00:18:42.291Z,9.80
2019-04-23T00:19:39.747Z,9.80
2019-04-23T00:20:52.873Z,9.80
2019-04-23T00:22:02.198Z,9.70
2019-04-23T00:24:53.093Z,9.70
2019-04-23T00:26:03.982Z,9.80
2019-04-23T00:27:22.630Z,9.70
2019-04-23T00:28:21.610Z,9.70
2019-04-23T00:29:28.548Z,9.70
2019-04-23T00:30:48.130Z,9.70
2019-04-23T00:31:36.210Z,9.70
2019-04-23T00:32:48.000Z,9.70
2019-04-23T00:33:51.149Z,9.70
2019-04-23T00:35:00.772Z,9.70
2019-04-23T00:36:07.016Z,9.70
2019-04-23T00:37:18.647Z,9.70
2019-04-23T00:38:33.565Z,9.70
2019-04-23T00:39:29.853Z,9.70
2019-04-23T00:40:32.048Z,9.70
2019-04-23T00:41:44.246Z,9.60
2019-04-23T00:43:54.701Z,9.60
2019-04-23T00:44:57.166Z,9.60
2019-04-23T00:45:59.693Z,9.60
2019-04-23T00:47:17.957Z,9.60
2019-04-23T00:48:28.228Z,9.50
2019-04-23T00:49:25.561Z,9.50
2019-04-23T00:50:38.441Z,9.40
2019-04-23T00:51:43.061Z,9.30
2019-04-23T00:52:45.686Z,9.30
2019-04-23T00:53:51.867Z,9.30
2019-04-23T00:55:05.436Z,9.30
2019-04-23T00:56:29.584Z,9.30
2019-04-23T00:57:21.824Z,9.30
2019-04-23T00:58:31.803Z,9.20
2019-04-23T00:59:32.570Z,9.20
2019-04-23T01:01:49.640Z,9.20
2019-04-23T01:02:52.894Z,9.10
2019-04-23T01:03:53.154Z,9.10
2019-04-23T01:05:08.542Z,9.00
2019-04-23T01:06:08.137Z,9.00
2019-04-23T01:07:13.366Z,9.00
2019-04-23T01:08:19.909Z,8.90
2019-04-23T01:09:37.310Z,9.00
2019-04-23T01:12:06.142Z,9.00
2019-04-23T01:13:14.961Z,9.00
2019-04-23T01:14:20.191Z,8.90
2019-04-23T01:15:37.244Z,8.90
2019-04-23T01:16:33.318Z,8.80
2019-04-23T01:18:54.566Z,8.80
2019-04-23T01:20:09.735Z,8.80
2019-04-23T01:21:01.219Z,8.80
2019-04-23T01:22:06.673Z,8.80
2019-04-23T01:23:47.131Z,8.80
2019-04-23T01:25:04.570Z,8.90
2019-04-23T01:26:23.934Z,8.90
2019-04-23T01:27:47.436Z,8.90
2019-04-23T01:29:52.407Z,8.90
2019-04-23T01:31:05.619Z,8.90
2019-04-23T01:32:05.882Z,8.90
2019-04-23T01:33:23.805Z,8.90
2019-04-23T01:34:25.790Z,8.90
2019-04-23T01:35:39.598Z,8.90
2019-04-23T01:36:41.225Z,8.90
2019-04-23T01:37:55.675Z,8.90
2019-04-23T01:38:54.992Z,8.90
2019-04-23T01:39:58.118Z,8.80
2019-04-23T01:41:02.111Z,8.80
2019-04-23T01:42:14.000Z,8.80
2019-04-23T01:43:17.945Z,8.80
2019-04-23T01:44:22.501Z,8.80
2019-04-23T01:45:24.162Z,8.80
2019-04-23T01:46:35.760Z,8.80
2019-04-23T01:47:45.805Z,8.80
2019-04-23T01:48:47.136Z,8.80
2019-04-23T01:50:56.155Z,8.70
2019-04-23T01:52:08.446Z,8.70
2019-04-23T01:54:20.663Z,8.70
2019-04-23T01:55:28.016Z,8.70
2019-04-23T01:57:46.713Z,8.60
2019-04-23T01:58:43.977Z,8.60
2019-04-23T01:59:55.414Z,8.60
2019-04-23T02:01:00.749Z,8.60
2019-04-23T02:02:05.269Z,8.60
2019-04-23T02:03:15.297Z,8.60
2019-04-23T02:04:22.903Z,8.70
2019-04-23T02:05:32.576Z,8.60
2019-04-23T02:06:31.610Z,8.60
2019-04-23T02:07:44.292Z,8.60
2019-04-23T02:08:47.048Z,8.60
2019-04-23T02:09:58.979Z,8.60
2019-04-23T02:12:07.963Z,8.70
2019-04-23T02:13:17.871Z,8.60
2019-04-23T02:14:20.842Z,8.70
2019-04-23T02:15:31.920Z,8.60
2019-04-23T02:17:47.199Z,8.70
2019-04-23T02:18:52.778Z,8.60
2019-04-23T02:19:53.866Z,8.60
2019-04-23T02:21:02.369Z,8.60
2019-04-23T02:22:31.607Z,8.60
2019-04-23T02:23:46.396Z,8.50
2019-04-23T02:24:54.100Z,8.50
2019-04-23T02:25:58.749Z,8.60
2019-04-23T02:27:05.189Z,8.70
2019-04-23T02:28:31.090Z,8.60
2019-04-23T02:29:28.735Z,8.60
2019-04-23T02:31:52.794Z,8.60
2019-04-23T02:32:52.220Z,8.60
2019-04-23T02:33:54.217Z,8.60
2019-04-23T02:35:08.754Z,8.60
2019-04-23T02:37:19.168Z,8.70
2019-04-23T02:39:26.414Z,8.70
2019-04-23T02:40:44.684Z,8.60
2019-04-23T02:41:34.980Z,8.70
2019-04-23T02:43:52.544Z,8.60
2019-04-23T02:44:56.382Z,8.60
2019-04-23T02:47:23.579Z,8.70
2019-04-23T02:49:31.932Z,8.60
2019-04-23T02:51:37.170Z,8.70
2019-04-23T02:52:49.002Z,8.60
2019-04-23T02:54:57.069Z,8.60
2019-04-23T02:57:24.691Z,8.60
2019-04-23T02:58:21.460Z,8.60
2019-04-23T02:59:32.738Z,8.60
2019-04-23T03:01:54.400Z,8.60
2019-04-23T03:03:59.804Z,8.60
2019-04-23T03:05:00.832Z,8.60
2019-04-23T03:07:13.959Z,8.40
2019-04-23T03:08:24.911Z,8.40
2019-04-23T03:09:34.027Z,8.50
2019-04-23T03:10:33.789Z,8.50
2019-04-23T03:11:40.603Z,8.40
2019-04-23T03:15:36.187Z,8.50
2019-04-23T03:16:58.408Z,8.50
2019-04-23T03:18:21.142Z,8.50
2019-04-23T03:22:32.698Z,8.50
2019-04-23T03:27:31.948Z,8.50
2019-04-23T03:28:38.345Z,8.50
2019-04-23T03:29:40.137Z,8.50
2019-04-23T03:34:56.472Z,8.40
2019-04-23T03:35:09.640Z,8.50
2019-04-23T03:36:56.479Z,8.40
2019-04-23T03:37:32.211Z,8.40
2019-04-23T03:40:59.022Z,8.50
2019-04-23T03:41:56.989Z,8.50
2019-04-23T03:44:09.300Z,8.50
2019-04-23T03:47:39.039Z,8.50
2019-04-23T03:48:42.096Z,8.50
2019-04-23T03:52:01.327Z,8.50
2019-04-23T03:53:06.663Z,8.40
2019-04-23T03:55:19.155Z,8.50
2019-04-23T03:55:19.462Z,8.50
2019-04-23T03:58:44.488Z,8.50
2019-04-23T03:59:51.966Z,8.50
2019-04-23T04:02:15.479Z,8.50
2019-04-23T04:03:42.212Z,8.50
2019-04-23T04:05:33.682Z,8.50
2019-04-23T04:06:37.548Z,8.40
2019-04-23T04:08:33.892Z,8.50
2019-04-23T04:11:11.236Z,8.60
2019-04-23T04:12:04.335Z,8.60
2019-04-23T04:13:06.590Z,8.60
2019-04-23T04:15:41.583Z,8.60
2019-04-23T04:16:28.173Z,8.70
2019-04-23T04:18:45.856Z,8.70
2019-04-23T04:21:03.461Z,8.70
2019-04-23T04:23:19.668Z,8.70
2019-04-23T04:24:23.988Z,8.80
2019-04-23T04:25:26.912Z,8.80
2019-04-23T04:26:37.934Z,8.90
2019-04-23T04:28:48.803Z,8.90
2019-04-23T04:35:00.311Z,9.10
2019-04-23T04:35:47.331Z,9.10
2019-04-23T04:37:51.367Z,9.20
2019-04-23T04:38:54.312Z,9.30
2019-04-23T04:41:09.552Z,9.30
2019-04-23T04:43:41.373Z,9.40
2019-04-23T04:46:45.565Z,9.50
2019-04-23T04:47:44.953Z,9.60
2019-04-23T04:48:56.876Z,9.60
2019-04-23T04:50:02.425Z,9.60
2019-04-23T04:53:44.965Z,9.70
2019-04-23T04:55:41.254Z,9.70
2019-04-23T04:56:42.994Z,9.70
2019-04-23T05:00:13.352Z,9.90
2019-04-23T05:01:16.101Z,9.90
2019-04-23T05:03:25.874Z,9.90
2019-04-23T05:04:37.434Z,10.00
2019-04-23T05:09:17.160Z,10.10
2019-04-23T05:11:17.347Z,10.10
2019-04-23T05:13:42.407Z,10.20
2019-04-23T05:16:50.611Z,10.30
2019-04-23T05:18:30.199Z,10.40
2019-04-23T05:20:37.218Z,10.40
2019-04-23T05:22:52.716Z,10.50
2019-04-23T05:24:51.295Z,10.50
2019-04-23T05:26:02.863Z,10.60
2019-04-23T05:28:31.215Z,10.60
2019-04-23T05:29:16.276Z,10.60
2019-04-23T05:32:49.109Z,10.80
2019-04-23T05:33:57.096Z,10.80
2019-04-23T05:34:57.674Z,10.90
2019-04-23T05:37:16.626Z,10.90
2019-04-23T05:38:30.042Z,10.90
2019-04-23T05:39:29.110Z,11.00
2019-04-23T05:42:49.396Z,11.10
2019-04-23T05:43:58.055Z,11.10
2019-04-23T05:45:02.596Z,11.10
2019-04-23T05:46:04.389Z,11.20
2019-04-23T05:47:16.032Z,11.20
2019-04-23T05:48:20.114Z,11.30
2019-04-23T05:49:26.076Z,11.30
2019-04-23T05:50:44.451Z,11.40
2019-04-23T05:51:55.539Z,11.40
2019-04-23T05:53:51.403Z,11.40
2019-04-23T05:55:01.606Z,11.50
2019-04-23T05:56:06.523Z,11.50
2019-04-23T05:57:30.891Z,11.60
2019-04-23T05:58:25.074Z,11.60
2019-04-23T05:59:44.504Z,11.60
2019-04-23T06:00:39.557Z,11.70
2019-04-23T06:04:03.742Z,11.80
2019-04-23T06:05:03.816Z,11.80
2019-04-23T06:06:11.248Z,11.90
2019-04-23T06:08:38.480Z,12.00
2019-04-23T06:09:30.394Z,12.00
2019-04-23T06:10:44.294Z,12.10
2019-04-23T06:11:58.652Z,12.10
2019-04-23T06:14:06.830Z,12.20
2019-04-23T06:16:25.255Z,12.20
2019-04-23T06:18:33.264Z,12.30
2019-04-23T06:19:57.044Z,12.30
2019-04-23T06:20:48.810Z,12.40
2019-04-23T06:21:57.486Z,12.40
2019-04-23T06:23:02.004Z,12.40
2019-04-23T06:24:10.019Z,12.40
2019-04-23T06:25:25.261Z,12.50
2019-04-23T06:26:33.058Z,12.50
2019-04-23T06:27:27.720Z,12.60
2019-04-23T06:28:33.016Z,12.60
2019-04-23T06:32:59.295Z,12.80
2019-04-23T06:34:12.454Z,12.90
2019-04-23T06:35:12.137Z,12.90
2019-04-23T06:36:27.739Z,12.90
2019-04-23T06:37:40.010Z,13.00
2019-04-23T06:39:41.296Z,13.00
2019-04-23T06:40:47.558Z,13.10
2019-04-23T06:41:54.795Z,13.10
2019-04-23T06:44:49.827Z,13.20
2019-04-23T06:45:37.806Z,13.20
2019-04-23T06:46:53.549Z,13.30
2019-04-23T06:47:56.383Z,13.30
2019-04-23T06:49:02.437Z,13.30
2019-04-23T06:51:22.095Z,13.40
2019-04-23T06:52:20.600Z,13.50
2019-04-23T06:53:27.151Z,13.50
2019-04-23T06:55:42.246Z,13.50
2019-04-23T06:57:58.807Z,13.60
2019-04-23T06:58:58.865Z,13.60
2019-04-23T07:00:06.590Z,13.70
2019-04-23T07:01:15.187Z,13.80
2019-04-23T07:04:43.825Z,13.80
2019-04-23T07:06:11.442Z,13.90
2019-04-23T07:08:22.441Z,13.90
2019-04-23T07:09:13.381Z,13.90
2019-04-23T07:10:34.713Z,13.90
2019-04-23T07:11:40.280Z,14.00
2019-04-23T07:12:47.126Z,14.00
2019-04-23T07:14:59.604Z,14.10
2019-04-23T07:16:03.173Z,14.20
2019-04-23T07:17:08.707Z,14.30
2019-04-23T07:18:16.335Z,14.40
2019-04-23T07:20:27.356Z,14.50
2019-04-23T07:21:39.423Z,14.50
2019-04-23T07:22:49.901Z,14.50
2019-04-23T07:24:00.252Z,14.50
2019-04-23T07:25:00.337Z,14.50
2019-04-23T07:26:23.021Z,14.60
2019-04-23T07:27:13.519Z,14.60
2019-04-23T07:28:34.987Z,14.70
2019-04-23T07:29:30.892Z,14.70
2019-04-23T07:30:33.171Z,14.70
2019-04-23T07:32:52.519Z,14.70
2019-04-23T07:35:07.129Z,14.80
2019-04-23T07:36:20.677Z,14.80
2019-04-23T07:37:31.968Z,14.80
2019-04-23T07:38:56.436Z,14.80
2019-04-23T07:40:19.693Z,14.90
2019-04-23T07:41:23.798Z,14.90
2019-04-23T07:44:04.919Z,15.00
2019-04-23T07:45:19.339Z,15.10
2019-04-23T07:46:45.846Z,15.20
2019-04-23T07:48:06.562Z,15.30
2019-04-23T07:49:08.803Z,15.40
2019-04-23T07:50:33.608Z,15.50
2019-04-23T07:51:24.363Z,15.60
2019-04-23T07:52:33.727Z,15.60
2019-04-23T07:53:46.550Z,15.60
2019-04-23T07:54:44.296Z,15.50
2019-04-23T07:57:02.570Z,15.40
2019-04-23T07:58:06.663Z,15.40
2019-04-23T07:59:15.959Z,15.50
2019-04-23T08:00:19.050Z,15.60
2019-04-23T08:01:17.531Z,15.60
2019-04-23T08:02:31.309Z,15.70
2019-04-23T08:04:56.808Z,15.70
2019-04-23T08:05:42.544Z,15.70
2019-04-23T08:07:00.921Z,15.80
2019-04-23T08:08:03.132Z,15.90
2019-04-23T08:09:10.851Z,16.00
2019-04-23T08:10:14.189Z,16.00
2019-04-23T08:12:31.964Z,16.20
2019-04-23T08:14:51.564Z,16.20
2019-04-23T08:15:58.227Z,16.30
2019-04-23T08:16:58.117Z,16.40
2019-04-23T08:18:07.066Z,16.30
2019-04-23T08:19:05.577Z,16.20
2019-04-23T08:20:28.197Z,16.20
2019-04-23T08:21:40.318Z,16.10
2019-04-23T08:22:32.329Z,16.20
2019-04-23T08:25:33.834Z,16.20
2019-04-23T08:27:02.706Z,16.20
2019-04-23T08:28:22.985Z,16.20
2019-04-23T08:29:20.202Z,16.20
2019-04-23T08:30:33.443Z,16.20
2019-04-23T08:31:43.946Z,16.30
2019-04-23T08:32:47.598Z,16.40
2019-04-23T08:33:58.858Z,16.50
2019-04-23T08:35:03.090Z,16.60
2019-04-23T08:36:12.323Z,16.60
2019-04-23T08:37:24.623Z,16.50
2019-04-23T08:38:25.983Z,16.60
2019-04-23T08:39:33.914Z,16.60
2019-04-23T08:40:33.533Z,16.60
2019-04-23T08:42:00.322Z,16.70
2019-04-23T08:43:07.279Z,16.60
2019-04-23T08:43:57.207Z,16.70
2019-04-23T08:45:28.516Z,16.70
2019-04-23T08:50:27.445Z,16.60
2019-04-23T08:51:44.063Z,16.70
2019-04-23T08:52:34.650Z,16.70
2019-04-23T08:53:47.618Z,16.80
2019-04-23T08:55:12.369Z,16.80
2019-04-23T08:56:15.419Z,16.90
2019-04-23T08:57:09.062Z,16.90
2019-04-23T08:58:19.134Z,16.90
2019-04-23T08:59:34.805Z,17.00
2019-04-23T09:00:32.972Z,17.00
2019-04-23T09:01:48.099Z,16.90
2019-04-23T09:02:41.048Z,17.00
2019-04-23T09:03:46.497Z,17.10
2019-04-23T09:05:00.188Z,17.20
2019-04-23T09:06:05.329Z,17.20
2019-04-23T09:07:17.880Z,17.30
2019-04-23T09:09:29.084Z,17.40
2019-04-23T09:10:35.717Z,17.60
2019-04-23T09:15:10.163Z,17.60
2019-04-23T09:16:08.960Z,17.70
2019-04-23T09:17:34.304Z,17.70
2019-04-23T09:18:21.394Z,17.80
2019-04-23T09:19:32.142Z,17.90
2019-04-23T09:20:32.740Z,18.00
2019-04-23T09:21:53.280Z,18.10
2019-04-23T09:22:50.086Z,18.10
2019-04-23T09:24:05.786Z,18.10
2019-04-23T09:25:15.932Z,18.10
2019-04-23T09:26:08.025Z,17.90
2019-04-23T09:27:27.335Z,17.80
2019-04-23T09:29:45.689Z,17.80
2019-04-23T09:30:48.740Z,17.80
2019-04-23T09:39:12.522Z,18.00
2019-04-23T09:40:47.677Z,17.90
2019-04-23T09:42:08.396Z,18.00
2019-04-23T09:43:48.567Z,18.10
2019-04-23T09:45:14.558Z,18.20
2019-04-23T09:46:17.892Z,18.40
2019-04-23T09:48:51.192Z,18.40
2019-04-23T09:49:54.056Z,18.40
2019-04-23T09:50:57.134Z,18.40
2019-04-23T09:52:07.940Z,18.50
2019-04-23T09:53:20.551Z,18.50
2019-04-23T09:54:18.083Z,18.50
2019-04-23T09:55:35.187Z,18.60
2019-04-23T09:56:37.811Z,18.70
2019-04-23T09:57:43.145Z,18.80
2019-04-23T09:58:54.896Z,18.80
2019-04-23T10:00:22.438Z,18.90
2019-04-23T10:02:28.246Z,18.80
2019-04-23T10:03:28.351Z,18.90
2019-04-23T10:04:36.846Z,19.00
2019-04-23T10:05:38.913Z,19.00
2019-04-23T10:06:39.088Z,19.00
2019-04-23T10:07:54.494Z,19.10
2019-04-23T10:08:55.669Z,19.00
2019-04-23T10:09:57.462Z,18.90
2019-04-23T10:11:07.438Z,18.90
2019-04-23T10:12:13.162Z,19.00
2019-04-23T10:13:21.888Z,19.00
2019-04-23T10:14:28.436Z,19.00
2019-04-23T10:15:40.091Z,19.00
2019-04-23T10:16:43.369Z,19.00
2019-04-23T10:17:49.969Z,18.90
2019-04-23T10:18:57.265Z,18.90
2019-04-23T10:20:02.794Z,19.00
2019-04-23T10:21:08.226Z,19.10
2019-04-23T10:22:13.579Z,19.20
2019-04-23T10:23:19.041Z,19.30
2019-04-23T10:24:27.291Z,19.40
2019-04-23T10:25:34.135Z,19.60
2019-04-23T10:26:39.991Z,19.50
2019-04-23T10:27:54.447Z,19.40
2019-04-23T10:28:58.007Z,19.40
2019-04-23T10:30:03.969Z,19.50
2019-04-23T10:31:09.519Z,19.60
2019-04-23T10:32:17.574Z,19.50
2019-04-23T10:33:23.514Z,19.50
2019-04-23T10:34:30.472Z,19.30
2019-04-23T10:35:46.127Z,19.20
2019-04-23T10:36:44.486Z,19.20
2019-04-23T10:37:56.580Z,19.10
2019-04-23T10:39:06.123Z,19.30
2019-04-23T10:40:08.011Z,19.30
2019-04-23T10:41:11.890Z,19.50
2019-04-23T10:42:18.311Z,19.70
2019-04-23T10:43:25.060Z,19.90
2019-04-23T10:44:46.620Z,20.00
2019-04-23T10:46:31.138Z,20.10
2019-04-23T10:48:11.650Z,20.10
2019-04-23T10:53:26.612Z,20.30
2019-04-23T10:55:39.718Z,20.20
2019-04-23T10:56:42.627Z,20.30
2019-04-23T10:57:41.310Z,20.40
2019-04-23T10:58:45.847Z,20.60
2019-04-23T10:59:47.494Z,20.60
2019-04-23T11:01:05.081Z,20.20
2019-04-23T11:03:42.452Z,20.60
2019-04-23T11:05:53.799Z,21.00
2019-04-23T11:06:45.421Z,21.10
2019-04-23T11:07:42.011Z,21.20
2019-04-23T11:09:05.866Z,21.40
2019-04-23T11:10:22.024Z,21.60
2019-04-23T11:11:24.071Z,21.70
2019-04-23T11:13:53.127Z,21.60
2019-04-23T11:15:28.846Z,21.70
2019-04-23T11:17:35.673Z,22.30
2019-04-23T11:18:46.884Z,22.30
2019-04-23T11:21:07.375Z,22.40
2019-04-23T11:22:07.797Z,22.30
2019-04-23T11:22:57.429Z,22.50
2019-04-23T11:24:20.537Z,22.70
2019-04-23T11:25:27.954Z,22.60
2019-04-23T11:26:31.760Z,22.30
2019-04-23T11:27:36.215Z,22.40
2019-04-23T11:29:49.585Z,22.00
2019-04-23T11:31:12.045Z,22.20
2019-04-23T11:32:19.192Z,22.40
2019-04-23T11:34:44.507Z,22.70
2019-04-23T11:36:47.889Z,23.30
2019-04-23T11:39:55.379Z,22.90
2019-04-23T11:41:01.063Z,22.90
2019-04-23T11:42:23.439Z,22.90
2019-04-23T11:43:14.877Z,23.00
2019-04-23T11:44:30.812Z,23.00
2019-04-23T11:45:32.471Z,22.90
2019-04-23T11:48:12.350Z,22.80
2019-04-23T11:49:22.557Z,22.70
2019-04-23T11:49:55.249Z,22.60
2019-04-23T11:52:17.872Z,22.50
2019-04-23T11:53:19.748Z,22.50
2019-04-23T11:54:27.760Z,22.60
2019-04-23T11:55:40.834Z,22.80
2019-04-23T11:57:14.907Z,23.00
2019-04-23T11:57:52.143Z,23.20
2019-04-23T11:58:52.531Z,23.30
2019-04-23T11:59:59.399Z,23.00
2019-04-23T12:01:47.146Z,22.90
2019-04-23T12:02:57.934Z,22.70
2019-04-23T12:05:05.861Z,22.70
2019-04-23T12:06:17.257Z,22.60
2019-04-23T12:07:42.710Z,22.70
2019-04-23T12:09:08.035Z,22.90
2019-04-23T12:10:31.371Z,22.80
2019-04-23T12:11:52.709Z,22.50
2019-04-23T12:12:44.920Z,22.30
2019-04-23T12:14:21.886Z,22.20
2019-04-23T12:15:25.358Z,22.10
2019-04-23T12:16:31.877Z,22.10
2019-04-23T12:17:39.288Z,22.20
2019-04-23T12:19:01.988Z,22.00
2019-04-23T12:19:57.636Z,21.90
2019-04-23T12:21:13.108Z,22.00
2019-04-23T12:23:33.328Z,21.70
2019-04-23T12:26:53.826Z,21.40
2019-04-23T12:27:46.959Z,21.40
2019-04-23T12:29:09.987Z,21.40
2019-04-23T12:31:15.970Z,21.50
2019-04-23T12:33:45.294Z,21.60
2019-04-23T12:34:58.716Z,21.80
2019-04-23T12:35:43.748Z,21.80
2019-04-23T12:36:56.838Z,21.90
2019-04-23T12:39:21.471Z,22.30
2019-04-23T12:41:31.691Z,22.50
2019-04-23T12:43:40.556Z,22.60
2019-04-23T12:45:05.261Z,22.70
2019-04-23T12:45:56.716Z,22.80
2019-04-23T12:47:18.851Z,22.70
2019-04-23T12:48:23.832Z,22.80
2019-04-23T12:51:40.258Z,22.90
2019-04-23T12:52:47.668Z,22.90
2019-04-23T12:53:49.345Z,22.90
2019-04-23T12:56:02.418Z,23.10
2019-04-23T12:57:21.347Z,23.00
2019-04-23T12:58:22.260Z,22.90
2019-04-23T12:59:30.504Z,23.00
2019-04-23T13:00:36.666Z,23.10
2019-04-23T13:01:49.244Z,23.00
2019-04-23T13:03:02.637Z,22.90
2019-04-23T13:03:50.824Z,22.60
2019-04-23T13:05:21.641Z,22.50
2019-04-23T13:06:08.956Z,22.30
2019-04-23T13:07:30.322Z,22.30
2019-04-23T13:08:33.290Z,22.50
2019-04-23T13:09:49.192Z,22.70
2019-04-23T13:10:45.291Z,22.70
2019-04-23T13:11:57.780Z,23.10
2019-04-23T13:13:11.191Z,23.00
2019-04-23T13:14:08.725Z,23.10
2019-04-23T13:16:25.266Z,23.40
2019-04-23T13:17:40.316Z,23.90
2019-04-23T13:18:39.504Z,24.30
2019-04-23T13:19:51.378Z,25.00
2019-04-23T13:20:46.788Z,25.10
2019-04-23T13:24:15.681Z,25.90
2019-04-23T13:26:44.805Z,26.30
2019-04-23T13:28:01.931Z,26.30
2019-04-23T13:29:03.117Z,26.30
2019-04-23T13:30:16.883Z,26.60
2019-04-23T13:31:18.093Z,26.80
2019-04-23T13:32:29.285Z,26.40
2019-04-23T13:34:48.446Z,26.20
2019-04-23T13:35:53.387Z,26.70
2019-04-23T13:36:53.958Z,26.50
2019-04-23T13:39:14.646Z,27.00
2019-04-23T13:40:17.601Z,27.20
2019-04-23T13:41:20.105Z,27.40
2019-04-23T13:42:49.880Z,26.40
2019-04-23T13:44:43.986Z,25.80
2019-04-23T13:46:59.981Z,25.80
2019-04-23T13:49:09.474Z,26.10
2019-04-23T13:52:57.880Z,25.20
2019-04-23T13:55:00.253Z,25.40
2019-04-23T13:55:47.033Z,25.60
2019-04-23T13:57:32.517Z,25.60
2019-04-23T13:58:20.767Z,25.80
2019-04-23T13:59:26.572Z,26.10
2019-04-23T14:00:35.287Z,26.50
2019-04-23T14:01:35.351Z,26.90
2019-04-23T14:02:49.448Z,27.10
2019-04-23T14:03:50.506Z,27.00
2019-04-23T14:05:10.442Z,27.20
2019-04-23T14:06:24.057Z,27.60
2019-04-23T14:07:32.508Z,27.30
2019-04-23T14:08:43.265Z,26.70
2019-04-23T14:09:52.662Z,26.10
2019-04-23T14:10:48.121Z,25.90
2019-04-23T14:11:45.137Z,25.60
2019-04-23T14:13:15.195Z,25.40
2019-04-23T14:14:16.715Z,25.20
2019-04-23T14:15:35.880Z,25.00
2019-04-23T14:16:34.011Z,24.60
2019-04-23T14:18:13.315Z,24.20
2019-04-23T14:20:07.183Z,24.30
2019-04-23T14:21:24.972Z,24.30
2019-04-23T14:24:46.933Z,24.80
2019-04-23T14:26:00.017Z,24.20
2019-04-23T14:26:49.924Z,24.10
2019-04-23T14:28:08.066Z,23.90
2019-04-23T14:29:04.123Z,24.00
2019-04-23T14:31:17.383Z,24.20
2019-04-23T14:34:46.352Z,23.70
2019-04-23T14:35:49.728Z,23.70
2019-04-23T14:37:04.135Z,23.70
2019-04-23T14:38:23.593Z,23.50
2019-04-23T14:39:10.035Z,23.30
2019-04-23T14:40:26.622Z,23.10
2019-04-23T14:41:23.374Z,23.00
2019-04-23T14:42:47.333Z,22.90
2019-04-23T14:43:49.807Z,23.10
2019-04-23T14:45:06.282Z,23.00
2019-04-23T14:46:27.169Z,23.00
2019-04-23T14:47:22.031Z,22.90
2019-04-23T14:49:40.861Z,22.50
2019-04-23T14:52:00.357Z,22.50
2019-04-23T14:52:58.871Z,22.60
2019-04-23T14:53:53.821Z,22.50
2019-04-23T14:56:16.206Z,22.70
2019-04-23T14:57:32.764Z,22.70
2019-04-23T14:58:36.086Z,22.70
2019-04-23T14:59:29.132Z,22.70
2019-04-23T15:01:49.124Z,22.80
2019-04-23T15:03:04.503Z,22.70
2019-04-23T15:04:02.012Z,22.60
2019-04-23T15:05:11.609Z,22.60
2019-04-23T15:08:42.482Z,22.30
2019-04-23T15:09:46.000Z,22.10
2019-04-23T15:11:02.530Z,22.10
2019-04-23T15:12:04.866Z,22.20
2019-04-23T15:13:01.780Z,22.20
2019-04-23T15:14:17.586Z,22.10
2019-04-23T15:15:18.495Z,22.30
2019-04-23T15:16:22.344Z,22.50
2019-04-23T15:17:28.423Z,22.50
2019-04-23T15:19:31.165Z,22.50
2019-04-23T15:20:24.955Z,22.30
2019-04-23T15:22:32.453Z,22.20
2019-04-23T15:23:59.145Z,22.10
2019-04-23T15:24:51.611Z,21.90
2019-04-23T15:26:41.132Z,21.80
2019-04-23T15:28:58.649Z,22.00
2019-04-23T15:30:17.412Z,21.90
2019-04-23T15:31:34.919Z,21.80
2019-04-23T15:32:53.512Z,21.60
2019-04-23T15:33:56.528Z,21.50
2019-04-23T15:34:57.399Z,21.30
2019-04-23T15:36:22.657Z,21.00
2019-04-23T15:39:27.132Z,21.40
2019-04-23T15:40:25.162Z,21.60
2019-04-23T15:41:43.804Z,21.80
2019-04-23T15:42:51.002Z,22.00
2019-04-23T15:43:57.241Z,21.80
2019-04-23T15:45:01.537Z,21.40
2019-04-23T15:46:13.014Z,21.00
2019-04-23T15:47:10.203Z,21.00
2019-04-23T15:48:18.551Z,21.00
2019-04-23T15:51:47.901Z,21.20
2019-04-23T15:52:51.563Z,21.40
2019-04-23T15:53:48.519Z,21.50
2019-04-23T15:56:16.079Z,21.60
2019-04-23T15:57:07.343Z,21.40
2019-04-23T16:00:31.136Z,20.50
2019-04-23T16:02:17.867Z,20.30
2019-04-23T16:03:25.093Z,20.30
2019-04-23T16:04:29.845Z,20.20
2019-04-23T16:05:35.066Z,20.20
2019-04-23T16:06:41.540Z,20.30
2019-04-23T16:08:06.091Z,20.40
2019-04-23T16:09:26.245Z,20.50
2019-04-23T16:12:41.488Z,20.80
2019-04-23T16:14:04.668Z,20.50
2019-04-23T16:15:03.787Z,20.40
2019-04-23T16:16:06.220Z,20.10
2019-04-23T16:18:38.256Z,20.00
2019-04-23T16:20:12.673Z,20.00
2019-04-23T16:21:10.238Z,20.10
2019-04-23T16:22:10.806Z,20.10
2019-04-23T16:23:17.873Z,20.10
2019-04-23T16:24:22.090Z,20.30
2019-04-23T16:25:20.618Z,20.20
2019-04-23T16:27:45.748Z,20.00
2019-04-23T16:30:10.438Z,20.00
2019-04-23T16:31:19.016Z,20.10
2019-04-23T16:32:24.374Z,20.10
2019-04-23T16:33:16.681Z,20.00
2019-04-23T16:34:33.736Z,20.10
2019-04-23T16:36:12.689Z,20.10
2019-04-23T16:37:15.339Z,20.00
2019-04-23T16:39:20.187Z,19.80
2019-04-23T16:40:37.878Z,19.80
2019-04-23T16:41:42.330Z,19.80
2019-04-23T16:42:51.154Z,19.70
2019-04-23T16:43:57.620Z,19.70
2019-04-23T16:45:13.127Z,19.60
2019-04-23T16:46:11.959Z,19.60
2019-04-23T16:49:34.662Z,19.40
2019-04-23T16:50:41.518Z,19.30
2019-04-23T16:51:38.631Z,19.20
2019-04-23T16:52:51.933Z,19.10
2019-04-23T16:54:04.011Z,18.90
2019-04-23T16:56:27.439Z,18.70
2019-04-23T16:57:33.237Z,18.50
2019-04-23T16:58:33.639Z,18.50
2019-04-23T17:02:56.386Z,18.40
2019-04-23T17:04:06.134Z,18.40
2019-04-23T17:05:11.024Z,18.30
2019-04-23T17:06:18.980Z,18.30
2019-04-23T17:07:14.942Z,18.30
2019-04-23T17:08:42.507Z,18.20
2019-04-23T17:10:42.791Z,18.10
2019-04-23T17:11:53.053Z,18.00
2019-04-23T17:12:56.026Z,18.00
2019-04-23T17:14:02.654Z,17.90
2019-04-23T17:15:10.898Z,17.90
2019-04-23T17:16:16.473Z,17.80
2019-04-23T17:17:14.879Z,17.70
2019-04-23T17:18:31.377Z,17.70
2019-04-23T17:20:47.241Z,17.60
2019-04-23T17:21:54.195Z,17.60
2019-04-23T17:23:10.672Z,17.50
2019-04-23T17:25:15.343Z,17.50
2019-04-23T17:26:18.972Z,17.50
2019-04-23T17:27:24.063Z,17.40
2019-04-23T17:28:28.175Z,17.40
2019-04-23T17:29:41.432Z,17.40
2019-04-23T17:30:52.321Z,17.30
2019-04-23T17:32:02.684Z,17.30
2019-04-23T17:33:24.057Z,17.30
2019-04-23T17:34:30.500Z,17.20
2019-04-23T17:36:16.660Z,17.20
2019-04-23T17:37:12.162Z,17.10
2019-04-23T17:38:34.324Z,17.10
2019-04-23T17:39:31.127Z,17.00
2019-04-23T17:41:07.056Z,17.00
2019-04-23T17:43:41.598Z,16.90
2019-04-23T17:45:01.948Z,16.90
2019-04-23T17:45:56.619Z,16.90
2019-04-23T17:47:14.154Z,16.80
2019-04-23T17:48:35.921Z,16.80
2019-04-23T17:49:53.910Z,16.70
2019-04-23T17:50:57.562Z,16.70
2019-04-23T17:52:05.151Z,16.60
2019-04-23T17:53:17.778Z,16.60
2019-04-23T17:54:19.419Z,16.60
2019-04-23T17:55:21.719Z,16.60
2019-04-23T17:57:36.878Z,16.50
2019-04-23T17:58:46.959Z,16.50
2019-04-23T18:00:05.582Z,16.50
2019-04-23T18:01:14.773Z,16.40
2019-04-23T18:03:13.064Z,16.50
2019-04-23T18:04:28.829Z,16.50
2019-04-23T18:05:23.598Z,16.40
2019-04-23T18:06:41.162Z,16.40
2019-04-23T18:09:00.915Z,16.30
2019-04-23T18:10:09.913Z,16.30
2019-04-23T18:11:13.917Z,16.20
2019-04-23T18:14:18.218Z,16.20
2019-04-23T18:15:21.985Z,16.20
2019-04-23T18:16:41.079Z,16.10
2019-04-23T18:17:48.517Z,16.10
2019-04-23T18:20:16.346Z,16.10
2019-04-23T18:22:47.047Z,16.00
2019-04-23T18:24:22.649Z,16.00
2019-04-23T18:27:00.020Z,16.00
2019-04-23T18:28:00.544Z,15.90
2019-04-23T18:29:25.806Z,15.90
2019-04-23T18:30:33.560Z,15.90
2019-04-23T18:33:43.824Z,15.80
2019-04-23T18:34:23.837Z,15.80
2019-04-23T18:36:26.150Z,15.80
2019-04-23T18:37:36.157Z,15.70
2019-04-23T18:38:45.933Z,15.70
2019-04-23T18:39:54.607Z,15.80
2019-04-23T18:41:05.468Z,15.80
2019-04-23T18:43:20.469Z,15.80
2019-04-23T18:44:24.953Z,15.80
2019-04-23T18:45:32.073Z,15.80
2019-04-23T18:46:39.953Z,15.80
2019-04-23T18:47:47.197Z,15.70
2019-04-23T18:48:50.115Z,15.70
2019-04-23T18:49:59.265Z,15.70
2019-04-23T18:52:14.524Z,15.70
2019-04-23T18:53:27.986Z,15.70
2019-04-23T18:54:24.326Z,15.70
2019-04-23T18:55:54.343Z,15.80
2019-04-23T18:56:49.336Z,15.80